sensor_id;sensor_type;location;lat;lon;timestamp;temperature;humidity
39453;DHT22;25154;-33.684;151.102;2023-06-19T00:02:33;10.10;99.90
39453;DHT22;25154;-33.684;151.102;2023-06-19T00:07:47;10.40;99.90
39453;DHT22;25154;-33.684;151.102;2023-06-19T00:18:00;10.50;99.90
39453;DHT22;25154;-33.684;151.102;2023-06-19T00:23:03;11.00;99.90
39453;DHT22;25154;-33.684;151.102;2023-06-19T00:28:06;11.30;99.90
39453;DHT22;25154;-33.684;151.102;2023-06-19T00:33:13;11.50;99.90
39453;DHT22;25154;-33.684;151.102;2023-06-19T00:38:16;11.60;98.80
39453;DHT22;25154;-33.684;151.102;2023-06-19T00:43:20;11.60;99.00
39453;DHT22;25154;-33.684;151.102;2023-06-19T00:48:23;12.10;98.50
39453;DHT22;25154;-33.684;151.102;2023-06-19T00:53:29;12.10;97.70
39453;DHT22;25154;-33.684;151.102;2023-06-19T00:58:38;12.10;97.70
39453;DHT22;25154;-33.684;151.102;2023-06-19T01:03:46;12.50;98.80
39453;DHT22;25154;-33.684;151.102;2023-06-19T01:08:58;12.70;98.50
39453;DHT22;25154;-33.684;151.102;2023-06-19T01:14:08;13.10;97.60
39453;DHT22;25154;-33.684;151.102;2023-06-19T01:19:19;13.10;96.80
39453;DHT22;25154;-33.684;151.102;2023-06-19T01:24:35;13.50;94.00
39453;DHT22;25154;-33.684;151.102;2023-06-19T01:29:38;13.60;94.80
39453;DHT22;25154;-33.684;151.102;2023-06-19T01:34:44;13.20;93.10
39453;DHT22;25154;-33.684;151.102;2023-06-19T01:39:50;13.20;92.60
39453;DHT22;25154;-33.684;151.102;2023-06-19T01:44:54;13.70;92.50
39453;DHT22;25154;-33.684;151.102;2023-06-19T01:49:57;13.90;93.00
39453;DHT22;25154;-33.684;151.102;2023-06-19T01:55:06;17.90;92.40
39453;DHT22;25154;-33.684;151.102;2023-06-19T02:00:13;13.70;91.40
39453;DHT22;25154;-33.684;151.102;2023-06-19T02:05:16;13.70;91.70
39453;DHT22;25154;-33.684;151.102;2023-06-19T02:10:19;14.30;92.20
39453;DHT22;25154;-33.684;151.102;2023-06-19T02:15:22;14.10;91.30
39453;DHT22;25154;-33.684;151.102;2023-06-19T02:20:25;14.20;90.90
39453;DHT22;25154;-33.684;151.102;2023-06-19T02:25:27;14.50;90.70
39453;DHT22;25154;-33.684;151.102;2023-06-19T02:30:48;14.90;91.60
39453;DHT22;25154;-33.684;151.102;2023-06-19T02:35:51;13.60;90.10
39453;DHT22;25154;-33.684;151.102;2023-06-19T02:40:55;14.60;89.10
39453;DHT22;25154;-33.684;151.102;2023-06-19T02:45:59;12.80;86.70
39453;DHT22;25154;-33.684;151.102;2023-06-19T02:51:02;15.50;89.60
39453;DHT22;25154;-33.684;151.102;2023-06-19T02:56:05;15.70;88.30
39453;DHT22;25154;-33.684;151.102;2023-06-19T03:06:12;17.00;87.70
39453;DHT22;25154;-33.684;151.102;2023-06-19T03:11:19;16.00;90.20
39453;DHT22;25154;-33.684;151.102;2023-06-19T03:16:22;16.40;87.30
39453;DHT22;25154;-33.684;151.102;2023-06-19T03:21:24;16.10;86.50
39453;DHT22;25154;-33.684;151.102;2023-06-19T03:26:28;16.20;87.70
39453;DHT22;25154;-33.684;151.102;2023-06-19T03:31:30;16.00;87.90
39453;DHT22;25154;-33.684;151.102;2023-06-19T03:36:33;16.40;87.30
39453;DHT22;25154;-33.684;151.102;2023-06-19T03:41:35;16.30;89.50
39453;DHT22;25154;-33.684;151.102;2023-06-19T03:46:37;16.90;88.60
39453;DHT22;25154;-33.684;151.102;2023-06-19T03:51:40;16.20;88.10
39453;DHT22;25154;-33.684;151.102;2023-06-19T03:56:42;16.40;88.00
39453;DHT22;25154;-33.684;151.102;2023-06-19T04:01:44;16.20;88.80
39453;DHT22;25154;-33.684;151.102;2023-06-19T04:06:46;16.50;89.90
39453;DHT22;25154;-33.684;151.102;2023-06-19T04:11:49;16.60;88.60
39453;DHT22;25154;-33.684;151.102;2023-06-19T04:16:51;17.30;90.00
39453;DHT22;25154;-33.684;151.102;2023-06-19T04:21:53;17.20;87.50
39453;DHT22;25154;-33.684;151.102;2023-06-19T04:26:56;19.90;82.60
39453;DHT22;25154;-33.684;151.102;2023-06-19T04:31:59;20.60;76.30
39453;DHT22;25154;-33.684;151.102;2023-06-19T04:37:01;20.20;76.30
39453;DHT22;25154;-33.684;151.102;2023-06-19T04:42:04;18.30;80.70
39453;DHT22;25154;-33.684;151.102;2023-06-19T04:47:06;17.70;83.00
39453;DHT22;25154;-33.684;151.102;2023-06-19T04:52:09;17.30;81.20
39453;DHT22;25154;-33.684;151.102;2023-06-19T04:57:17;17.70;83.70
39453;DHT22;25154;-33.684;151.102;2023-06-19T05:02:19;18.20;81.60
39453;DHT22;25154;-33.684;151.102;2023-06-19T05:07:21;20.20;77.60
39453;DHT22;25154;-33.684;151.102;2023-06-19T05:12:24;22.70;69.90
39453;DHT22;25154;-33.684;151.102;2023-06-19T05:17:26;23.30;69.90
39453;DHT22;25154;-33.684;151.102;2023-06-19T05:22:29;24.30;68.80
39453;DHT22;25154;-33.684;151.102;2023-06-19T05:27:33;25.90;65.50
39453;DHT22;25154;-33.684;151.102;2023-06-19T05:32:35;24.10;64.60
39453;DHT22;25154;-33.684;151.102;2023-06-19T05:37:38;19.10;72.60
39453;DHT22;25154;-33.684;151.102;2023-06-19T05:42:41;22.00;67.90
39453;DHT22;25154;-33.684;151.102;2023-06-19T05:47:43;23.60;66.90
39453;DHT22;25154;-33.684;151.102;2023-06-19T05:52:45;23.70;64.80
39453;DHT22;25154;-33.684;151.102;2023-06-19T05:57:48;19.60;72.60
39453;DHT22;25154;-33.684;151.102;2023-06-19T06:02:50;20.30;70.10
39453;DHT22;25154;-33.684;151.102;2023-06-19T06:07:54;17.00;75.10
39453;DHT22;25154;-33.684;151.102;2023-06-19T06:12:56;16.00;79.60
39453;DHT22;25154;-33.684;151.102;2023-06-19T06:17:59;15.40;79.60
39453;DHT22;25154;-33.684;151.102;2023-06-19T06:23:03;15.50;81.70
39453;DHT22;25154;-33.684;151.102;2023-06-19T06:28:06;15.60;81.80
39453;DHT22;25154;-33.684;151.102;2023-06-19T06:33:08;14.50;84.10
39453;DHT22;25154;-33.684;151.102;2023-06-19T06:38:10;13.80;85.30
39453;DHT22;25154;-33.684;151.102;2023-06-19T06:43:13;13.20;93.70
39453;DHT22;25154;-33.684;151.102;2023-06-19T06:48:18;12.80;92.10
39453;DHT22;25154;-33.684;151.102;2023-06-19T06:53:21;12.80;92.30
39453;DHT22;25154;-33.684;151.102;2023-06-19T07:03:25;12.60;91.40
39453;DHT22;25154;-33.684;151.102;2023-06-19T07:08:30;12.60;90.20
39453;DHT22;25154;-33.684;151.102;2023-06-19T07:13:33;12.50;90.10
39453;DHT22;25154;-33.684;151.102;2023-06-19T07:18:37;12.30;90.40
39453;DHT22;25154;-33.684;151.102;2023-06-19T07:23:42;12.40;90.60
39453;DHT22;25154;-33.684;151.102;2023-06-19T07:28:45;12.30;88.60
39453;DHT22;25154;-33.684;151.102;2023-06-19T07:33:48;12.30;88.90
39453;DHT22;25154;-33.684;151.102;2023-06-19T07:38:51;12.20;88.50
39453;DHT22;25154;-33.684;151.102;2023-06-19T07:43:54;12.10;88.50
39453;DHT22;25154;-33.684;151.102;2023-06-19T07:48:57;12.10;89.40
39453;DHT22;25154;-33.684;151.102;2023-06-19T07:59:02;12.50;91.70
39453;DHT22;25154;-33.684;151.102;2023-06-19T08:04:05;11.50;92.90
39453;DHT22;25154;-33.684;151.102;2023-06-19T08:09:09;11.30;92.60
39453;DHT22;25154;-33.684;151.102;2023-06-19T08:14:12;11.30;92.90
39453;DHT22;25154;-33.684;151.102;2023-06-19T08:19:15;10.90;93.40
39453;DHT22;25154;-33.684;151.102;2023-06-19T08:24:18;10.90;94.00
39453;DHT22;25154;-33.684;151.102;2023-06-19T08:29:20;10.70;95.30
39453;DHT22;25154;-33.684;151.102;2023-06-19T08:34:24;10.70;94.80
39453;DHT22;25154;-33.684;151.102;2023-06-19T08:39:27;10.40;97.40
39453;DHT22;25154;-33.684;151.102;2023-06-19T08:44:30;10.20;98.30
39453;DHT22;25154;-33.684;151.102;2023-06-19T08:49:35;10.20;97.60
39453;DHT22;25154;-33.684;151.102;2023-06-19T08:54:38;10.50;96.10
39453;DHT22;25154;-33.684;151.102;2023-06-19T08:59:52;10.40;96.40
39453;DHT22;25154;-33.684;151.102;2023-06-19T09:04:54;10.60;97.00
39453;DHT22;25154;-33.684;151.102;2023-06-19T09:09:57;10.60;95.50
39453;DHT22;25154;-33.684;151.102;2023-06-19T09:15:00;11.70;97.00
39453;DHT22;25154;-33.684;151.102;2023-06-19T09:20:03;10.40;97.60
39453;DHT22;25154;-33.684;151.102;2023-06-19T09:25:07;10.30;98.30
39453;DHT22;25154;-33.684;151.102;2023-06-19T09:30:16;10.10;98.80
39453;DHT22;25154;-33.684;151.102;2023-06-19T09:35:19;10.10;99.90
39453;DHT22;25154;-33.684;151.102;2023-06-19T09:40:22;10.10;98.40
39453;DHT22;25154;-33.684;151.102;2023-06-19T09:45:28;10.10;99.90
39453;DHT22;25154;-33.684;151.102;2023-06-19T09:50:32;9.60;99.90
39453;DHT22;25154;-33.684;151.102;2023-06-19T09:55:37;9.30;99.90
39453;DHT22;25154;-33.684;151.102;2023-06-19T10:00:41;9.40;99.90
39453;DHT22;25154;-33.684;151.102;2023-06-19T10:05:43;9.30;99.90
39453;DHT22;25154;-33.684;151.102;2023-06-19T10:10:49;9.30;99.90
39453;DHT22;25154;-33.684;151.102;2023-06-19T10:15:55;9.20;99.90
39453;DHT22;25154;-33.684;151.102;2023-06-19T10:20:57;9.00;99.90
39453;DHT22;25154;-33.684;151.102;2023-06-19T10:26:00;9.20;99.90
39453;DHT22;25154;-33.684;151.102;2023-06-19T10:31:07;9.30;99.90
39453;DHT22;25154;-33.684;151.102;2023-06-19T10:36:18;9.60;99.90
39453;DHT22;25154;-33.684;151.102;2023-06-19T10:41:25;10.00;99.90
39453;DHT22;25154;-33.684;151.102;2023-06-19T10:46:34;10.10;99.90
39453;DHT22;25154;-33.684;151.102;2023-06-19T10:51:42;10.90;98.20
39453;DHT22;25154;-33.684;151.102;2023-06-19T10:56:46;11.10;97.80
39453;DHT22;25154;-33.684;151.102;2023-06-19T11:01:50;11.30;97.60
39453;DHT22;25154;-33.684;151.102;2023-06-19T11:06:52;11.20;98.10
39453;DHT22;25154;-33.684;151.102;2023-06-19T11:11:55;11.10;98.80
39453;DHT22;25154;-33.684;151.102;2023-06-19T11:16:57;11.00;99.90
39453;DHT22;25154;-33.684;151.102;2023-06-19T11:22:00;10.90;99.90
39453;DHT22;25154;-33.684;151.102;2023-06-19T11:27:04;10.80;99.90
39453;DHT22;25154;-33.684;151.102;2023-06-19T11:32:13;10.90;99.90
39453;DHT22;25154;-33.684;151.102;2023-06-19T11:37:16;10.80;99.90
39453;DHT22;25154;-33.684;151.102;2023-06-19T11:47:26;10.70;99.90
39453;DHT22;25154;-33.684;151.102;2023-06-19T11:52:33;10.60;99.90
39453;DHT22;25154;-33.684;151.102;2023-06-19T11:57:36;10.70;99.90
39453;DHT22;25154;-33.684;151.102;2023-06-19T12:02:39;10.60;99.90
39453;DHT22;25154;-33.684;151.102;2023-06-19T12:07:42;10.70;99.90
39453;DHT22;25154;-33.684;151.102;2023-06-19T12:12:44;10.60;99.90
39453;DHT22;25154;-33.684;151.102;2023-06-19T12:17:47;10.50;99.90
39453;DHT22;25154;-33.684;151.102;2023-06-19T12:22:50;10.40;99.90
39453;DHT22;25154;-33.684;151.102;2023-06-19T12:27:53;10.30;99.90
39453;DHT22;25154;-33.684;151.102;2023-06-19T12:32:56;10.20;99.90
39453;DHT22;25154;-33.684;151.102;2023-06-19T12:37:58;9.90;99.90
39453;DHT22;25154;-33.684;151.102;2023-06-19T12:43:01;10.00;99.90
39453;DHT22;25154;-33.684;151.102;2023-06-19T12:48:05;9.60;99.90
39453;DHT22;25154;-33.684;151.102;2023-06-19T12:53:08;9.60;99.90
39453;DHT22;25154;-33.684;151.102;2023-06-19T12:58:11;9.30;99.90
39453;DHT22;25154;-33.684;151.102;2023-06-19T13:03:14;9.30;99.90
39453;DHT22;25154;-33.684;151.102;2023-06-19T13:08:17;9.20;99.90
39453;DHT22;25154;-33.684;151.102;2023-06-19T13:13:19;9.20;99.90
39453;DHT22;25154;-33.684;151.102;2023-06-19T13:18:22;9.00;99.90
39453;DHT22;25154;-33.684;151.102;2023-06-19T13:23:25;8.80;99.90
39453;DHT22;25154;-33.684;151.102;2023-06-19T13:28:28;8.90;99.90
39453;DHT22;25154;-33.684;151.102;2023-06-19T13:33:33;8.70;99.90
39453;DHT22;25154;-33.684;151.102;2023-06-19T13:38:36;8.60;99.90
39453;DHT22;25154;-33.684;151.102;2023-06-19T13:43:39;8.50;99.90
39453;DHT22;25154;-33.684;151.102;2023-06-19T13:48:42;8.50;99.90
39453;DHT22;25154;-33.684;151.102;2023-06-19T13:53:44;8.60;99.90
39453;DHT22;25154;-33.684;151.102;2023-06-19T14:03:50;8.40;99.90
39453;DHT22;25154;-33.684;151.102;2023-06-19T14:08:53;8.40;99.90
39453;DHT22;25154;-33.684;151.102;2023-06-19T14:13:56;8.20;99.90
39453;DHT22;25154;-33.684;151.102;2023-06-19T14:18:59;8.20;99.90
39453;DHT22;25154;-33.684;151.102;2023-06-19T14:24:02;8.10;99.90
39453;DHT22;25154;-33.684;151.102;2023-06-19T14:29:04;8.10;99.90
39453;DHT22;25154;-33.684;151.102;2023-06-19T14:34:07;8.00;99.90
39453;DHT22;25154;-33.684;151.102;2023-06-19T14:39:10;8.00;99.90
39453;DHT22;25154;-33.684;151.102;2023-06-19T14:44:13;8.00;99.90
39453;DHT22;25154;-33.684;151.102;2023-06-19T14:49:17;8.00;99.90
39453;DHT22;25154;-33.684;151.102;2023-06-19T14:54:20;8.00;99.90
39453;DHT22;25154;-33.684;151.102;2023-06-19T14:59:22;8.00;99.90
39453;DHT22;25154;-33.684;151.102;2023-06-19T15:04:25;7.90;99.90
39453;DHT22;25154;-33.684;151.102;2023-06-19T15:09:28;7.80;99.90
39453;DHT22;25154;-33.684;151.102;2023-06-19T15:14:31;7.60;99.90
39453;DHT22;25154;-33.684;151.102;2023-06-19T15:19:35;7.40;99.90
39453;DHT22;25154;-33.684;151.102;2023-06-19T15:24:44;5.40;99.90
39453;DHT22;25154;-33.684;151.102;2023-06-19T15:29:50;7.10;99.90
39453;DHT22;25154;-33.684;151.102;2023-06-19T15:34:53;6.90;99.90
39453;DHT22;25154;-33.684;151.102;2023-06-19T15:39:55;7.00;99.90
39453;DHT22;25154;-33.684;151.102;2023-06-19T15:44:59;6.90;99.90
39453;DHT22;25154;-33.684;151.102;2023-06-19T15:50:02;6.80;99.90
39453;DHT22;25154;-33.684;151.102;2023-06-19T15:55:06;6.40;99.90
39453;DHT22;25154;-33.684;151.102;2023-06-19T16:00:09;6.30;99.90
39453;DHT22;25154;-33.684;151.102;2023-06-19T16:05:13;6.40;99.90
39453;DHT22;25154;-33.684;151.102;2023-06-19T16:10:17;6.50;99.90
39453;DHT22;25154;-33.684;151.102;2023-06-19T16:15:20;6.30;99.90
39453;DHT22;25154;-33.684;151.102;2023-06-19T16:20:29;5.80;99.90
39453;DHT22;25154;-33.684;151.102;2023-06-19T16:25:32;5.80;99.90
39453;DHT22;25154;-33.684;151.102;2023-06-19T16:30:35;6.00;99.90
39453;DHT22;25154;-33.684;151.102;2023-06-19T16:35:37;6.00;99.90
39453;DHT22;25154;-33.684;151.102;2023-06-19T16:40:40;5.80;99.90
39453;DHT22;25154;-33.684;151.102;2023-06-19T16:45:43;5.60;99.90
39453;DHT22;25154;-33.684;151.102;2023-06-19T16:50:45;5.50;99.90
39453;DHT22;25154;-33.684;151.102;2023-06-19T16:55:49;5.30;99.90
39453;DHT22;25154;-33.684;151.102;2023-06-19T17:00:53;5.10;99.90
39453;DHT22;25154;-33.684;151.102;2023-06-19T17:05:55;5.20;99.90
39453;DHT22;25154;-33.684;151.102;2023-06-19T17:10:58;5.30;99.90
39453;DHT22;25154;-33.684;151.102;2023-06-19T17:16:01;4.70;99.90
39453;DHT22;25154;-33.684;151.102;2023-06-19T17:21:04;4.70;99.90
39453;DHT22;25154;-33.684;151.102;2023-06-19T17:26:06;4.90;99.90
39453;DHT22;25154;-33.684;151.102;2023-06-19T17:31:09;5.00;99.90
39453;DHT22;25154;-33.684;151.102;2023-06-19T17:36:12;5.40;99.90
39453;DHT22;25154;-33.684;151.102;2023-06-19T17:41:14;4.90;99.90
39453;DHT22;25154;-33.684;151.102;2023-06-19T17:46:17;5.10;99.90
39453;DHT22;25154;-33.684;151.102;2023-06-19T17:51:20;5.10;99.90
39453;DHT22;25154;-33.684;151.102;2023-06-19T17:56:23;5.10;99.90
39453;DHT22;25154;-33.684;151.102;2023-06-19T18:01:26;4.90;99.90
39453;DHT22;25154;-33.684;151.102;2023-06-19T18:06:28;4.60;99.90
39453;DHT22;25154;-33.684;151.102;2023-06-19T18:11:31;5.00;99.90
39453;DHT22;25154;-33.684;151.102;2023-06-19T18:21:36;5.20;99.90
39453;DHT22;25154;-33.684;151.102;2023-06-19T18:26:39;4.90;99.90
39453;DHT22;25154;-33.684;151.102;2023-06-19T18:31:41;4.70;99.90
39453;DHT22;25154;-33.684;151.102;2023-06-19T18:36:44;4.70;99.90
39453;DHT22;25154;-33.684;151.102;2023-06-19T18:41:47;4.60;99.90
39453;DHT22;25154;-33.684;151.102;2023-06-19T18:46:49;4.60;99.90
39453;DHT22;25154;-33.684;151.102;2023-06-19T18:51:52;4.30;99.90
39453;DHT22;25154;-33.684;151.102;2023-06-19T18:56:55;4.30;99.90
39453;DHT22;25154;-33.684;151.102;2023-06-19T19:01:58;4.30;99.90
39453;DHT22;25154;-33.684;151.102;2023-06-19T19:07:01;4.10;99.90
39453;DHT22;25154;-33.684;151.102;2023-06-19T19:12:04;3.90;99.90
39453;DHT22;25154;-33.684;151.102;2023-06-19T19:22:09;3.80;99.90
39453;DHT22;25154;-33.684;151.102;2023-06-19T19:27:12;4.00;99.90
39453;DHT22;25154;-33.684;151.102;2023-06-19T19:32:15;4.00;99.90
39453;DHT22;25154;-33.684;151.102;2023-06-19T19:37:17;3.70;99.90
39453;DHT22;25154;-33.684;151.102;2023-06-19T19:42:20;3.80;99.90
39453;DHT22;25154;-33.684;151.102;2023-06-19T19:47:23;3.70;99.90
39453;DHT22;25154;-33.684;151.102;2023-06-19T19:52:25;3.20;99.90
39453;DHT22;25154;-33.684;151.102;2023-06-19T19:57:28;3.50;99.90
39453;DHT22;25154;-33.684;151.102;2023-06-19T20:02:31;3.20;99.90
39453;DHT22;25154;-33.684;151.102;2023-06-19T20:07:34;3.00;99.90
39453;DHT22;25154;-33.684;151.102;2023-06-19T20:12:36;3.40;99.90
39453;DHT22;25154;-33.684;151.102;2023-06-19T20:17:39;3.40;99.90
39453;DHT22;25154;-33.684;151.102;2023-06-19T20:22:42;3.20;99.90
39453;DHT22;25154;-33.684;151.102;2023-06-19T20:27:44;3.30;99.90
39453;DHT22;25154;-33.684;151.102;2023-06-19T20:32:49;3.30;99.90
39453;DHT22;25154;-33.684;151.102;2023-06-19T20:37:51;3.40;99.90
39453;DHT22;25154;-33.684;151.102;2023-06-19T20:42:54;3.40;99.90
39453;DHT22;25154;-33.684;151.102;2023-06-19T20:47:57;3.90;99.90
39453;DHT22;25154;-33.684;151.102;2023-06-19T20:53:00;4.20;99.90
39453;DHT22;25154;-33.684;151.102;2023-06-19T20:58:02;4.30;99.90
39453;DHT22;25154;-33.684;151.102;2023-06-19T21:03:06;3.90;99.90
39453;DHT22;25154;-33.684;151.102;2023-06-19T21:08:08;4.10;99.90
39453;DHT22;25154;-33.684;151.102;2023-06-19T21:13:11;4.10;99.90
39453;DHT22;25154;-33.684;151.102;2023-06-19T21:18:14;4.10;99.90
39453;DHT22;25154;-33.684;151.102;2023-06-19T21:23:17;3.80;99.90
39453;DHT22;25154;-33.684;151.102;2023-06-19T21:28:21;3.90;99.90
39453;DHT22;25154;-33.684;151.102;2023-06-19T21:33:24;4.20;99.90
39453;DHT22;25154;-33.684;151.102;2023-06-19T21:38:27;4.30;99.90
39453;DHT22;25154;-33.684;151.102;2023-06-19T21:43:31;4.30;99.90
39453;DHT22;25154;-33.684;151.102;2023-06-19T21:48:34;4.30;99.90
39453;DHT22;25154;-33.684;151.102;2023-06-19T21:53:37;4.60;99.90
39453;DHT22;25154;-33.684;151.102;2023-06-19T21:58:40;5.10;99.90
39453;DHT22;25154;-33.684;151.102;2023-06-19T22:03:43;5.50;99.90
39453;DHT22;25154;-33.684;151.102;2023-06-19T22:08:45;5.60;99.90
39453;DHT22;25154;-33.684;151.102;2023-06-19T22:13:48;6.00;99.90
39453;DHT22;25154;-33.684;151.102;2023-06-19T22:18:51;6.20;99.90
39453;DHT22;25154;-33.684;151.102;2023-06-19T22:23:54;6.90;99.90
39453;DHT22;25154;-33.684;151.102;2023-06-19T22:28:57;6.10;99.90
39453;DHT22;25154;-33.684;151.102;2023-06-19T22:33:59;6.20;99.90
39453;DHT22;25154;-33.684;151.102;2023-06-19T22:39:02;6.90;99.90
39453;DHT22;25154;-33.684;151.102;2023-06-19T22:44:05;7.10;99.90
39453;DHT22;25154;-33.684;151.102;2023-06-19T22:49:07;7.50;99.90
39453;DHT22;25154;-33.684;151.102;2023-06-19T22:54:10;8.10;99.90
39453;DHT22;25154;-33.684;151.102;2023-06-19T22:59:12;8.30;99.90
39453;DHT22;25154;-33.684;151.102;2023-06-19T23:04:14;8.50;99.90
39453;DHT22;25154;-33.684;151.102;2023-06-19T23:09:17;8.80;99.90
39453;DHT22;25154;-33.684;151.102;2023-06-19T23:14:20;9.00;99.90
39453;DHT22;25154;-33.684;151.102;2023-06-19T23:19:22;9.30;99.90
39453;DHT22;25154;-33.684;151.102;2023-06-19T23:24:25;9.40;99.90
39453;DHT22;25154;-33.684;151.102;2023-06-19T23:29:30;9.50;99.90
39453;DHT22;25154;-33.684;151.102;2023-06-19T23:34:33;9.60;99.90
39453;DHT22;25154;-33.684;151.102;2023-06-19T23:39:36;9.90;99.90
39453;DHT22;25154;-33.684;151.102;2023-06-19T23:44:38;10.10;99.90
39453;DHT22;25154;-33.684;151.102;2023-06-19T23:49:41;10.10;98.30
39453;DHT22;25154;-33.684;151.102;2023-06-19T23:54:44;10.20;97.90
39453;DHT22;25154;-33.684;151.102;2023-06-19T23:59:46;10.20;98.00
